createdAt,value
2022-12-05T00:00:43.311Z,25.63
2022-12-05T00:01:45.156Z,25.27
2022-12-05T00:02:46.630Z,23.00
2022-12-05T00:03:50.672Z,21.88
2022-12-05T00:04:52.216Z,20.77
2022-12-05T00:05:53.650Z,22.02
2022-12-05T00:06:55.439Z,22.92
2022-12-05T00:07:56.946Z,20.48
2022-12-05T00:08:58.860Z,22.42
2022-12-05T00:10:00.471Z,23.08
2022-12-05T00:11:02.084Z,19.10
2022-12-05T00:12:03.786Z,22.40
2022-12-05T00:13:05.841Z,21.02
2022-12-05T00:14:08.802Z,22.23
2022-12-05T00:16:17.959Z,21.15
2022-12-05T00:17:19.595Z,18.92
2022-12-05T00:18:21.024Z,20.13
2022-12-05T00:19:22.829Z,20.50
2022-12-05T00:20:24.229Z,19.42
2022-12-05T00:21:28.457Z,19.90
2022-12-05T00:22:29.966Z,18.40
2022-12-05T00:23:31.488Z,20.73
2022-12-05T00:24:32.934Z,20.75
2022-12-05T00:25:36.349Z,20.13
2022-12-05T00:26:38.154Z,20.80
2022-12-05T00:27:39.783Z,21.05
2022-12-05T00:28:41.598Z,19.40
2022-12-05T00:29:43.040Z,20.33
2022-12-05T00:30:44.454Z,17.35
2022-12-05T00:31:46.375Z,19.67
2022-12-05T00:32:47.889Z,23.73
2022-12-05T00:33:50.043Z,21.63
2022-12-05T00:34:51.484Z,21.75
2022-12-05T00:35:52.902Z,21.23
2022-12-05T00:36:54.718Z,21.10
2022-12-05T00:37:56.164Z,20.33
2022-12-05T00:39:00.547Z,19.55
2022-12-05T00:40:02.004Z,20.52
2022-12-05T00:41:08.901Z,22.80
2022-12-05T00:42:10.326Z,21.33
2022-12-05T00:43:11.731Z,20.75
2022-12-05T00:44:13.704Z,22.13
2022-12-05T00:45:15.198Z,22.20
2022-12-05T00:46:20.684Z,21.38
2022-12-05T00:47:22.226Z,19.15
2022-12-05T00:48:23.727Z,19.92
2022-12-05T00:49:25.243Z,20.67
2022-12-05T00:50:26.741Z,22.35
2022-12-05T00:51:34.784Z,20.80
2022-12-05T00:52:36.329Z,20.30
2022-12-05T00:53:38.536Z,22.58
2022-12-05T00:54:47.092Z,18.80
2022-12-05T00:55:48.530Z,20.23
2022-12-05T00:56:52.852Z,20.58
2022-12-05T00:57:54.267Z,21.10
2022-12-05T00:58:57.206Z,20.60
2022-12-05T00:59:59.049Z,21.20
2022-12-05T01:01:13.626Z,21.60
2022-12-05T01:02:15.071Z,21.20
2022-12-05T01:03:16.640Z,22.92
2022-12-05T01:04:27.389Z,23.20
2022-12-05T01:05:28.822Z,22.67
2022-12-05T01:06:30.738Z,21.88
2022-12-05T01:07:32.232Z,22.20
2022-12-05T01:08:35.115Z,20.33
2022-12-05T01:09:36.532Z,23.02
2022-12-05T01:10:37.949Z,21.63
2022-12-05T01:11:41.672Z,21.63
2022-12-05T01:12:43.245Z,24.05
2022-12-05T01:13:45.659Z,21.25
2022-12-05T01:14:47.163Z,21.55
2022-12-05T01:15:48.910Z,20.00
2022-12-05T01:16:52.722Z,20.10
2022-12-05T01:17:54.200Z,21.60
2022-12-05T01:18:57.591Z,20.92
2022-12-05T01:19:59.278Z,20.25
2022-12-05T01:21:04.965Z,20.35
2022-12-05T01:22:06.712Z,21.38
2022-12-05T01:23:08.757Z,23.02
2022-12-05T01:24:11.760Z,20.58
2022-12-05T01:26:17.024Z,21.55
2022-12-05T01:27:18.477Z,20.05
2022-12-05T01:28:20.424Z,21.83
2022-12-05T01:29:23.474Z,20.38
2022-12-05T01:32:30.242Z,21.25
2022-12-05T01:33:31.681Z,21.08
2022-12-05T01:34:33.113Z,20.67
2022-12-05T01:35:39.241Z,19.92
2022-12-05T01:36:41.398Z,21.15
2022-12-05T01:37:42.881Z,21.33
2022-12-05T01:38:45.070Z,18.52
2022-12-05T01:39:48.317Z,21.30
2022-12-05T01:40:49.789Z,20.30
2022-12-05T01:41:51.709Z,20.50
2022-12-05T01:42:53.662Z,20.83
2022-12-05T01:44:05.105Z,20.85
2022-12-05T01:45:32.639Z,19.70
2022-12-05T01:47:37.502Z,20.73
2022-12-05T01:48:38.954Z,19.70
2022-12-05T01:49:42.524Z,22.02
2022-12-05T01:50:44.490Z,22.25
2022-12-05T01:51:49.280Z,21.75
2022-12-05T01:52:50.740Z,20.95
2022-12-05T01:53:52.292Z,20.42
2022-12-05T01:54:57.873Z,20.63
2022-12-05T01:55:59.321Z,19.67
2022-12-05T01:57:05.500Z,19.83
2022-12-05T01:58:09.857Z,20.70
2022-12-05T01:59:12.247Z,23.20
2022-12-05T02:00:17.603Z,22.00
2022-12-05T02:01:19.321Z,21.13
2022-12-05T02:02:21.607Z,22.95
2022-12-05T02:03:23.477Z,25.08
2022-12-05T02:04:24.945Z,23.50
2022-12-05T02:05:30.602Z,21.95
2022-12-05T02:06:32.861Z,22.77
2022-12-05T02:07:38.593Z,22.95
2022-12-05T02:08:41.192Z,18.77
2022-12-05T02:09:42.738Z,20.23
2022-12-05T02:10:46.936Z,23.75
2022-12-05T02:11:59.515Z,21.55
2022-12-05T02:13:12.867Z,21.08
2022-12-05T02:14:40.594Z,21.35
2022-12-05T02:15:52.405Z,21.27
2022-12-05T02:17:12.417Z,22.38
2022-12-05T02:18:23.177Z,19.90
2022-12-05T02:19:57.246Z,21.75
2022-12-05T02:21:33.233Z,20.85
2022-12-05T02:23:03.851Z,22.75
2022-12-05T02:24:28.464Z,23.05
2022-12-05T02:25:51.940Z,26.70
2022-12-05T02:27:08.013Z,23.35
2022-12-05T02:28:32.587Z,22.77
2022-12-05T02:30:05.212Z,23.15
2022-12-05T02:31:24.457Z,25.73
2022-12-05T02:32:44.052Z,24.40
2022-12-05T02:34:04.606Z,27.02
2022-12-05T02:35:05.983Z,25.48
2022-12-05T02:36:30.102Z,25.27
2022-12-05T02:37:51.727Z,25.50
2022-12-05T02:39:15.639Z,22.80
2022-12-05T02:40:23.815Z,26.83
2022-12-05T02:41:30.438Z,25.33
2022-12-05T02:42:46.872Z,25.42
2022-12-05T02:43:54.614Z,23.48
2022-12-05T02:45:09.858Z,24.85
2022-12-05T02:47:19.963Z,28.25
2022-12-05T02:48:26.127Z,27.23
2022-12-05T02:49:32.756Z,26.98
2022-12-05T02:50:40.478Z,28.50
2022-12-05T02:51:46.984Z,28.10
2022-12-05T02:52:52.379Z,25.30
2022-12-05T02:53:57.637Z,28.27
2022-12-05T02:55:00.384Z,27.90
2022-12-05T02:56:03.931Z,26.48
2022-12-05T02:57:06.167Z,26.77
2022-12-05T02:58:14.679Z,26.83
2022-12-05T02:59:22.797Z,25.92
2022-12-05T03:00:24.901Z,29.20
2022-12-05T03:01:30.134Z,30.52
2022-12-05T03:02:34.796Z,29.90
2022-12-05T03:03:37.105Z,25.00
2022-12-05T03:04:38.837Z,27.40
2022-12-05T03:05:51.371Z,24.17
2022-12-05T03:06:58.114Z,24.98
2022-12-05T03:08:02.490Z,25.80
2022-12-05T03:09:11.613Z,24.33
2022-12-05T03:11:17.017Z,23.45
2022-12-05T03:12:22.687Z,22.27
2022-12-05T03:13:48.772Z,24.42
2022-12-05T03:14:56.181Z,24.45
2022-12-05T03:16:03.194Z,22.00
2022-12-05T03:17:10.681Z,21.50
2022-12-05T03:18:26.595Z,22.23
2022-12-05T03:19:36.941Z,21.73
2022-12-05T03:20:54.345Z,23.83
2022-12-05T03:22:06.619Z,20.38
2022-12-05T03:23:14.422Z,20.63
2022-12-05T03:24:16.990Z,18.52
2022-12-05T03:25:20.319Z,19.33
2022-12-05T03:26:32.097Z,22.88
2022-12-05T03:27:53.097Z,19.98
2022-12-05T03:28:58.136Z,18.42
2022-12-05T03:30:03.590Z,20.70
2022-12-05T03:31:09.570Z,17.88
2022-12-05T03:32:21.024Z,20.45
2022-12-05T03:33:28.650Z,17.60
2022-12-05T03:34:48.711Z,21.42
2022-12-05T03:36:03.104Z,19.83
2022-12-05T03:37:11.057Z,19.00
2022-12-05T03:38:54.144Z,17.70
2022-12-05T03:40:09.141Z,16.67
2022-12-05T03:41:25.685Z,19.00
2022-12-05T03:42:33.207Z,19.73
2022-12-05T03:43:57.642Z,18.25
2022-12-05T03:45:19.030Z,16.48
2022-12-05T03:47:54.851Z,15.80
2022-12-05T03:49:13.518Z,18.05
2022-12-05T03:50:23.571Z,17.17
2022-12-05T03:51:53.736Z,17.13
2022-12-05T03:54:33.317Z,17.63
2022-12-05T03:55:37.260Z,17.38
2022-12-05T03:56:45.800Z,17.33
2022-12-05T03:58:17.368Z,17.67
2022-12-05T03:59:43.364Z,17.27
2022-12-05T04:00:49.304Z,16.92
2022-12-05T04:01:55.686Z,15.57
2022-12-05T04:03:20.953Z,15.52
2022-12-05T04:04:32.251Z,16.27
2022-12-05T04:06:10.133Z,16.45
2022-12-05T04:07:14.346Z,15.85
2022-12-05T04:08:31.332Z,15.63
2022-12-05T04:09:42.109Z,15.25
2022-12-05T04:10:49.854Z,17.73
2022-12-05T04:11:57.658Z,17.90
2022-12-05T04:13:17.650Z,19.58
2022-12-05T04:14:26.288Z,19.05
2022-12-05T04:15:52.143Z,18.80
2022-12-05T04:17:04.362Z,17.05
2022-12-05T04:18:07.408Z,15.77
2022-12-05T04:20:42.160Z,17.98
2022-12-05T04:21:49.906Z,15.98
2022-12-05T04:22:51.613Z,18.58
2022-12-05T04:24:13.210Z,16.90
2022-12-05T04:25:35.498Z,16.25
2022-12-05T04:26:44.280Z,16.52
2022-12-05T04:28:21.946Z,16.70
2022-12-05T04:29:32.183Z,17.25
2022-12-05T04:31:03.339Z,17.08
2022-12-05T04:32:10.805Z,16.25
2022-12-05T04:33:31.972Z,18.65
2022-12-05T04:34:37.113Z,14.43
2022-12-05T04:35:53.761Z,16.50
2022-12-05T04:36:59.940Z,17.83
2022-12-05T04:38:10.348Z,16.45
2022-12-05T04:39:27.675Z,15.27
2022-12-05T04:40:40.416Z,16.75
2022-12-05T04:41:56.256Z,14.88
2022-12-05T04:43:01.690Z,15.23
2022-12-05T04:44:09.006Z,15.77
2022-12-05T04:45:13.144Z,15.80
2022-12-05T04:46:18.936Z,17.40
2022-12-05T04:47:25.313Z,17.65
2022-12-05T04:48:28.251Z,18.60
2022-12-05T04:49:32.386Z,16.95
2022-12-05T04:50:37.610Z,16.10
2022-12-05T04:51:41.110Z,14.57
2022-12-05T04:52:47.858Z,14.70
2022-12-05T04:53:54.450Z,15.38
2022-12-05T04:55:06.116Z,14.75
2022-12-05T04:56:10.082Z,13.88
2022-12-05T04:57:33.970Z,14.85
2022-12-05T04:58:35.475Z,12.82
2022-12-05T04:59:37.005Z,15.55
2022-12-05T05:00:58.359Z,13.73
2022-12-05T05:02:07.775Z,15.73
2022-12-05T05:03:18.628Z,13.60
2022-12-05T05:04:27.348Z,15.23
2022-12-05T05:05:29.898Z,15.90
2022-12-05T05:06:31.790Z,14.52
2022-12-05T05:07:43.289Z,12.43
2022-12-05T05:08:53.229Z,13.63
2022-12-05T05:09:56.216Z,14.93
2022-12-05T05:11:04.380Z,14.98
2022-12-05T05:12:06.578Z,10.57
2022-12-05T05:13:07.990Z,13.95
2022-12-05T05:14:09.536Z,12.50
2022-12-05T05:15:11.367Z,11.60
2022-12-05T05:16:18.067Z,11.40
2022-12-05T05:17:19.638Z,14.35
2022-12-05T05:18:21.064Z,12.77
2022-12-05T05:19:23.076Z,12.18
2022-12-05T05:20:24.576Z,12.25
2022-12-05T05:21:32.249Z,12.45
2022-12-05T05:22:33.684Z,11.73
2022-12-05T05:23:35.125Z,12.20
2022-12-05T05:24:36.537Z,10.90
2022-12-05T05:25:38.053Z,11.25
2022-12-05T05:26:41.553Z,11.23
2022-12-05T05:27:42.969Z,11.00
2022-12-05T05:28:45.817Z,10.30
2022-12-05T05:29:47.253Z,11.55
2022-12-05T05:30:49.240Z,10.32
2022-12-05T05:31:51.094Z,10.40
2022-12-05T05:32:53.212Z,8.85
2022-12-05T05:33:56.154Z,9.65
2022-12-05T05:34:57.626Z,10.73
2022-12-05T05:36:06.269Z,10.80
2022-12-05T05:37:08.042Z,10.60
2022-12-05T05:38:09.505Z,9.85
2022-12-05T05:39:14.883Z,9.63
2022-12-05T05:40:16.501Z,10.40
2022-12-05T05:41:20.563Z,8.90
2022-12-05T05:42:22.303Z,10.82
2022-12-05T05:43:23.739Z,10.35
2022-12-05T05:44:25.166Z,10.00
2022-12-05T05:45:26.595Z,10.63
2022-12-05T05:46:31.638Z,10.60
2022-12-05T05:47:33.434Z,9.35
2022-12-05T05:48:35.434Z,9.32
2022-12-05T05:49:36.918Z,10.02
2022-12-05T05:50:38.318Z,10.20
2022-12-05T05:51:39.733Z,9.90
2022-12-05T05:52:41.574Z,9.20
2022-12-05T05:53:43.618Z,7.95
2022-12-05T05:54:45.075Z,8.82
2022-12-05T05:55:46.497Z,8.63
2022-12-05T05:56:48.254Z,8.93
2022-12-05T05:57:49.679Z,8.45
2022-12-05T05:59:00.040Z,9.82
2022-12-05T06:00:02.505Z,8.65
2022-12-05T06:01:08.098Z,8.77
2022-12-05T06:02:09.876Z,9.20
2022-12-05T06:03:11.425Z,9.80
2022-12-05T06:04:13.012Z,9.52
2022-12-05T06:05:14.465Z,8.43
2022-12-05T06:06:16.984Z,7.80
2022-12-05T06:07:18.562Z,8.88
2022-12-05T06:08:20.071Z,7.80
2022-12-05T06:09:21.640Z,8.48
2022-12-05T06:10:23.085Z,8.50
2022-12-05T06:11:27.516Z,8.25
2022-12-05T06:12:29.067Z,8.45
2022-12-05T06:13:30.465Z,7.75
2022-12-05T06:14:32.119Z,10.23
2022-12-05T06:15:33.578Z,8.93
2022-12-05T06:16:35.062Z,9.50
2022-12-05T06:17:36.862Z,8.75
2022-12-05T06:18:38.368Z,8.45
2022-12-05T06:19:41.216Z,8.90
2022-12-05T06:20:42.683Z,8.00
2022-12-05T06:21:44.106Z,8.80
2022-12-05T06:22:45.910Z,8.27
2022-12-05T06:23:47.904Z,8.45
2022-12-05T06:24:49.388Z,9.18
2022-12-05T06:25:53.287Z,9.90
2022-12-05T06:26:54.779Z,10.23
2022-12-05T06:27:56.380Z,8.65
2022-12-05T06:28:58.334Z,9.13
2022-12-05T06:30:00.927Z,9.43
2022-12-05T06:31:07.947Z,9.88
2022-12-05T06:32:09.594Z,8.98
2022-12-05T06:33:11.617Z,10.20
2022-12-05T06:34:13.205Z,10.52
2022-12-05T06:35:17.663Z,9.68
2022-12-05T06:36:21.785Z,11.00
2022-12-05T06:37:23.298Z,10.20
2022-12-05T06:38:25.056Z,10.02
2022-12-05T06:39:26.575Z,10.85
2022-12-05T06:40:28.019Z,10.80
2022-12-05T06:41:29.678Z,12.75
2022-12-05T06:42:31.505Z,12.38
2022-12-05T06:43:33.262Z,11.55
2022-12-05T06:44:34.638Z,10.20
2022-12-05T06:45:38.753Z,11.43
2022-12-05T06:46:40.269Z,12.07
2022-12-05T06:47:41.715Z,11.57
2022-12-05T06:48:43.449Z,10.40
2022-12-05T06:49:45.100Z,11.13
2022-12-05T06:50:53.635Z,10.45
2022-12-05T06:51:55.316Z,11.85
2022-12-05T06:52:56.787Z,9.65
2022-12-05T06:53:58.263Z,12.43
2022-12-05T06:54:59.810Z,11.23
2022-12-05T06:56:04.200Z,13.50
2022-12-05T06:57:05.622Z,12.95
2022-12-05T06:58:07.371Z,12.25
2022-12-05T06:59:08.844Z,12.18
2022-12-05T07:00:29.261Z,12.90
2022-12-05T07:01:40.785Z,13.75
2022-12-05T07:02:43.103Z,13.80
2022-12-05T07:03:44.687Z,15.18
2022-12-05T07:04:46.162Z,13.65
2022-12-05T07:05:47.579Z,14.43
2022-12-05T07:06:50.953Z,12.48
2022-12-05T07:07:53.106Z,12.98
2022-12-05T07:08:54.625Z,13.68
2022-12-05T07:09:56.387Z,14.63
2022-12-05T07:10:58.175Z,15.27
2022-12-05T07:11:59.591Z,12.52
2022-12-05T07:13:01.061Z,16.08
2022-12-05T07:14:10.467Z,16.92
2022-12-05T07:15:20.671Z,15.10
2022-12-05T07:16:22.671Z,14.82
2022-12-05T07:17:24.304Z,15.20
2022-12-05T07:18:26.622Z,14.23
2022-12-05T07:19:28.198Z,15.85
2022-12-05T07:20:38.433Z,13.50
2022-12-05T07:21:51.015Z,16.48
2022-12-05T07:22:52.489Z,16.45
2022-12-05T07:23:54.449Z,15.07
2022-12-05T07:24:55.879Z,16.60
2022-12-05T07:25:57.802Z,13.82
2022-12-05T07:26:59.333Z,15.15
2022-12-05T07:28:00.788Z,15.07
2022-12-05T07:29:02.520Z,16.40
2022-12-05T07:30:05.841Z,16.35
2022-12-05T07:31:09.840Z,17.75
2022-12-05T07:32:11.362Z,16.73
2022-12-05T07:33:12.922Z,16.15
2022-12-05T07:34:14.392Z,18.55
2022-12-05T07:35:16.231Z,15.10
2022-12-05T07:36:20.319Z,14.27
2022-12-05T07:37:21.756Z,14.98
2022-12-05T07:38:23.194Z,15.95
2022-12-05T07:39:24.640Z,17.08
2022-12-05T07:40:26.111Z,15.45
2022-12-05T07:41:32.560Z,18.02
2022-12-05T07:42:34.200Z,16.88
2022-12-05T07:43:35.719Z,17.52
2022-12-05T07:44:37.306Z,17.92
2022-12-05T07:45:38.732Z,19.55
2022-12-05T07:46:40.298Z,20.88
2022-12-05T07:47:41.794Z,19.08
2022-12-05T07:48:43.513Z,18.15
2022-12-05T07:49:44.989Z,29.33
2022-12-05T07:50:46.466Z,27.88
2022-12-05T07:51:48.006Z,22.83
2022-12-05T07:52:49.430Z,18.80
2022-12-05T07:53:51.078Z,16.98
2022-12-05T07:54:52.583Z,15.55
2022-12-05T07:55:53.995Z,15.52
2022-12-05T07:56:55.464Z,18.95
2022-12-05T07:57:57.006Z,18.23
2022-12-05T07:58:58.918Z,18.38
2022-12-05T08:00:00.583Z,20.13
2022-12-05T08:01:19.309Z,18.98
2022-12-05T08:02:20.874Z,16.83
2022-12-05T08:03:22.437Z,17.83
2022-12-05T08:04:23.958Z,18.67
2022-12-05T08:05:25.400Z,19.52
2022-12-05T08:06:29.590Z,19.17
2022-12-05T08:07:31.035Z,19.60
2022-12-05T08:08:32.927Z,18.05
2022-12-05T08:09:34.857Z,17.13
2022-12-05T08:10:36.299Z,16.17
2022-12-05T08:11:37.943Z,17.23
2022-12-05T08:12:39.456Z,19.92
2022-12-05T08:13:41.381Z,17.30
2022-12-05T08:14:43.160Z,16.75
2022-12-05T08:15:44.607Z,17.83
2022-12-05T08:16:46.093Z,17.58
2022-12-05T08:17:47.529Z,17.92
2022-12-05T08:18:49.233Z,18.17
2022-12-05T08:19:50.728Z,15.45
2022-12-05T08:20:52.291Z,17.85
2022-12-05T08:21:56.777Z,17.48
2022-12-05T08:22:58.250Z,19.05
2022-12-05T08:23:59.728Z,24.45
2022-12-05T08:25:01.389Z,19.08
2022-12-05T08:26:10.015Z,20.10
2022-12-05T08:27:11.466Z,17.00
2022-12-05T08:28:12.880Z,16.92
2022-12-05T08:29:15.738Z,18.02
2022-12-05T08:30:17.482Z,18.00
2022-12-05T08:31:20.561Z,17.85
2022-12-05T08:32:22.093Z,16.33
2022-12-05T08:33:23.510Z,16.77
2022-12-05T08:34:24.989Z,18.95
2022-12-05T08:35:26.417Z,16.38
2022-12-05T08:36:29.892Z,20.08
2022-12-05T08:37:31.392Z,18.92
2022-12-05T08:38:33.125Z,18.88
2022-12-05T08:39:38.777Z,18.50
2022-12-05T08:40:40.475Z,19.75
2022-12-05T08:41:43.525Z,17.85
2022-12-05T08:43:46.332Z,17.50
2022-12-05T08:44:51.314Z,19.30
2022-12-05T08:45:53.617Z,18.98
2022-12-05T08:46:55.156Z,16.02
2022-12-05T08:47:56.556Z,19.70
2022-12-05T08:48:58.104Z,19.60
2022-12-05T08:50:00.111Z,15.93
2022-12-05T08:51:09.624Z,17.48
2022-12-05T08:52:11.061Z,16.67
2022-12-05T08:53:12.807Z,17.67
2022-12-05T08:54:14.576Z,18.02
2022-12-05T08:55:16.003Z,18.55
2022-12-05T08:56:18.915Z,18.52
2022-12-05T08:57:23.584Z,16.70
2022-12-05T08:58:25.019Z,18.77
2022-12-05T08:59:26.529Z,18.85
2022-12-05T09:00:28.358Z,18.70
2022-12-05T09:01:33.650Z,17.35
2022-12-05T09:02:35.231Z,19.55
2022-12-05T09:03:36.816Z,18.55
2022-12-05T09:04:38.607Z,17.85
2022-12-05T09:05:40.050Z,17.90
2022-12-05T09:06:41.791Z,18.08
2022-12-05T09:07:43.682Z,19.80
2022-12-05T09:08:46.056Z,18.77
2022-12-05T09:09:47.604Z,18.73
2022-12-05T09:10:49.058Z,18.52
2022-12-05T09:11:50.972Z,17.67
2022-12-05T09:12:52.566Z,20.02
2022-12-05T09:13:56.032Z,20.20
2022-12-05T09:14:57.702Z,17.90
2022-12-05T09:15:59.493Z,18.48
2022-12-05T09:17:01.235Z,16.05
2022-12-05T09:18:02.664Z,17.77
2022-12-05T09:19:04.944Z,18.08
2022-12-05T09:20:07.775Z,19.38
2022-12-05T09:21:14.768Z,18.13
2022-12-05T09:22:16.168Z,17.52
2022-12-05T09:23:17.656Z,20.17
2022-12-05T09:24:19.572Z,18.30
2022-12-05T09:25:21.014Z,21.17
2022-12-05T09:26:24.800Z,18.67
2022-12-05T09:27:27.893Z,17.58
2022-12-05T09:29:31.854Z,24.70
2022-12-05T09:30:33.251Z,22.77
2022-12-05T09:31:34.861Z,20.10
2022-12-05T09:32:36.305Z,19.38
2022-12-05T09:33:38.767Z,18.65
2022-12-05T09:34:40.260Z,15.82
2022-12-05T09:35:41.681Z,18.02
2022-12-05T09:36:43.867Z,17.70
2022-12-05T09:37:45.247Z,18.80
2022-12-05T09:38:47.313Z,18.40
2022-12-05T09:39:48.811Z,18.48
2022-12-05T09:40:59.163Z,15.52
2022-12-05T09:42:21.510Z,17.15
2022-12-05T09:43:55.893Z,17.23
2022-12-05T09:45:17.689Z,21.65
2022-12-05T09:46:44.403Z,17.92
2022-12-05T09:47:48.886Z,16.02
2022-12-05T09:48:51.617Z,17.73
2022-12-05T09:50:22.923Z,17.08
2022-12-05T09:51:25.699Z,20.70
2022-12-05T09:52:35.105Z,19.13
2022-12-05T09:53:42.253Z,17.27
2022-12-05T09:54:43.761Z,16.00
2022-12-05T09:55:49.931Z,17.00
2022-12-05T09:56:53.182Z,18.02
2022-12-05T09:58:01.448Z,18.80
2022-12-05T09:59:03.021Z,18.30
2022-12-05T10:00:06.227Z,17.13
2022-12-05T10:01:45.794Z,19.30
2022-12-05T10:03:19.609Z,16.15
2022-12-05T10:07:51.841Z,31.05
2022-12-05T10:09:11.385Z,26.67
2022-12-05T10:11:00.032Z,21.67
2022-12-05T10:12:21.419Z,20.50
2022-12-05T10:13:37.761Z,18.55
2022-12-05T10:14:45.895Z,18.33
2022-12-05T10:16:02.962Z,17.95
2022-12-05T10:17:16.658Z,17.70
2022-12-05T10:18:33.932Z,19.38
2022-12-05T10:19:41.809Z,17.40
2022-12-05T10:20:57.171Z,18.25
2022-12-05T10:23:34.620Z,16.75
2022-12-05T10:24:45.189Z,17.30
2022-12-05T10:25:48.452Z,15.88
2022-12-05T10:26:58.862Z,16.55
2022-12-05T10:28:04.129Z,17.20
2022-12-05T10:29:28.634Z,16.52
2022-12-05T10:30:34.167Z,19.13
2022-12-05T10:31:38.721Z,17.73
2022-12-05T10:32:48.286Z,17.60
2022-12-05T10:33:57.302Z,16.80
2022-12-05T10:35:35.800Z,18.60
2022-12-05T10:36:37.284Z,16.65
2022-12-05T10:37:39.015Z,14.45
2022-12-05T10:38:43.067Z,16.75
2022-12-05T10:39:45.401Z,15.75
2022-12-05T10:40:54.158Z,16.27
2022-12-05T10:41:56.721Z,16.50
2022-12-05T10:42:58.265Z,16.23
2022-12-05T10:44:00.294Z,15.98
2022-12-05T10:45:14.901Z,15.85
2022-12-05T10:46:17.607Z,16.17
2022-12-05T10:47:19.251Z,17.92
2022-12-05T10:48:22.576Z,15.98
2022-12-05T10:49:24.681Z,18.83
2022-12-05T10:50:31.642Z,17.33
2022-12-05T10:51:37.578Z,17.73
2022-12-05T10:52:39.458Z,17.63
2022-12-05T10:53:49.726Z,18.80
2022-12-05T10:55:02.402Z,14.27
2022-12-05T10:56:29.882Z,16.08
2022-12-05T10:57:30.045Z,15.57
2022-12-05T10:58:31.624Z,19.23
2022-12-05T10:59:47.260Z,18.83
2022-12-05T11:01:10.139Z,17.15
2022-12-05T11:02:32.227Z,16.42
2022-12-05T11:03:38.152Z,15.82
2022-12-05T11:04:45.246Z,18.10
2022-12-05T11:05:50.442Z,18.02
2022-12-05T11:07:03.188Z,19.30
2022-12-05T11:08:04.662Z,16.45
2022-12-05T11:09:17.914Z,16.25
2022-12-05T11:10:38.074Z,18.58
2022-12-05T11:11:39.861Z,17.27
2022-12-05T11:12:41.486Z,16.35
2022-12-05T11:14:18.581Z,14.98
2022-12-05T11:15:25.282Z,15.48
2022-12-05T11:16:34.076Z,19.35
2022-12-05T11:17:39.654Z,18.40
2022-12-05T11:18:41.958Z,16.80
2022-12-05T11:19:43.385Z,17.67
2022-12-05T11:20:44.903Z,16.83
2022-12-05T11:21:46.602Z,15.77
2022-12-05T11:22:59.313Z,15.18
2022-12-05T11:24:22.653Z,17.75
2022-12-05T11:25:31.190Z,18.13
2022-12-05T11:26:36.319Z,16.98
2022-12-05T11:27:37.777Z,15.68
2022-12-05T11:28:39.736Z,15.80
2022-12-05T11:29:42.468Z,17.77
2022-12-05T11:30:58.281Z,15.70
2022-12-05T11:32:00.023Z,16.45
2022-12-05T11:33:18.571Z,19.13
2022-12-05T11:34:27.508Z,16.40
2022-12-05T11:35:29.312Z,17.33
2022-12-05T11:36:42.546Z,17.17
2022-12-05T11:37:53.248Z,17.38
2022-12-05T11:38:54.841Z,55.58
2022-12-05T11:39:56.902Z,55.65
2022-12-05T11:41:04.319Z,44.38
2022-12-05T11:42:16.816Z,34.45
2022-12-05T11:43:24.115Z,26.17
2022-12-05T11:44:28.692Z,22.45
2022-12-05T11:45:50.202Z,19.58
2022-12-05T11:49:41.488Z,17.23
2022-12-05T11:50:51.009Z,17.90
2022-12-05T11:52:02.872Z,19.02
2022-12-05T11:53:41.449Z,17.35
2022-12-05T11:55:04.464Z,17.13
2022-12-05T11:56:29.153Z,18.00
2022-12-05T11:57:52.562Z,16.27
2022-12-05T11:59:13.479Z,17.00
2022-12-05T12:00:52.621Z,19.75
2022-12-05T12:02:18.790Z,18.83
2022-12-05T12:03:36.481Z,20.08
2022-12-05T12:04:44.361Z,18.77
2022-12-05T12:06:11.866Z,18.48
2022-12-05T12:07:30.324Z,14.82
2022-12-05T12:08:52.082Z,16.52
2022-12-05T12:10:14.522Z,16.33
2022-12-05T12:11:18.868Z,17.02
2022-12-05T12:12:25.047Z,16.83
2022-12-05T12:14:01.221Z,17.15
2022-12-05T12:15:20.978Z,17.42
2022-12-05T12:16:45.853Z,17.10
2022-12-05T12:18:22.628Z,19.45
2022-12-05T12:19:45.264Z,16.88
2022-12-05T12:21:14.766Z,18.25
2022-12-05T12:22:28.272Z,17.08
2022-12-05T12:23:42.714Z,15.27
2022-12-05T12:25:09.652Z,16.23
2022-12-05T12:26:22.002Z,17.02
2022-12-05T12:27:48.219Z,17.60
2022-12-05T12:29:13.487Z,15.77
2022-12-05T12:30:24.871Z,18.00
2022-12-05T12:31:35.360Z,15.55
2022-12-05T12:33:03.898Z,16.83
2022-12-05T12:34:24.090Z,22.27
2022-12-05T12:35:53.942Z,17.83
2022-12-05T12:37:14.009Z,16.90
2022-12-05T12:38:33.671Z,17.00
2022-12-05T12:40:17.978Z,17.83
2022-12-05T12:41:28.365Z,18.17
2022-12-05T12:42:42.253Z,17.75
2022-12-05T12:44:18.145Z,17.50
2022-12-05T12:46:11.418Z,17.25
2022-12-05T12:48:00.958Z,16.45
2022-12-05T12:49:20.605Z,17.40
2022-12-05T12:50:25.655Z,15.02
2022-12-05T12:51:31.373Z,15.70
2022-12-05T12:53:02.456Z,14.45
2022-12-05T12:54:54.726Z,18.17
2022-12-05T12:55:54.355Z,17.08
2022-12-05T12:57:14.513Z,16.08
2022-12-05T12:59:06.224Z,18.88
2022-12-05T13:00:20.072Z,18.45
2022-12-05T13:01:49.242Z,17.17
2022-12-05T13:03:12.519Z,16.67
2022-12-05T13:04:20.118Z,18.35
2022-12-05T13:05:38.016Z,16.95
2022-12-05T13:07:01.407Z,16.17
2022-12-05T13:08:14.923Z,17.08
2022-12-05T13:09:37.320Z,14.80
2022-12-05T13:10:45.503Z,13.55
2022-12-05T13:11:50.043Z,18.88
2022-12-05T13:12:53.534Z,16.80
2022-12-05T13:13:59.404Z,18.88
2022-12-05T13:15:27.659Z,16.35
2022-12-05T13:16:33.741Z,15.30
2022-12-05T13:17:36.937Z,14.55
2022-12-05T13:18:38.800Z,14.75
2022-12-05T13:19:53.006Z,14.43
2022-12-05T13:20:57.513Z,18.08
2022-12-05T13:21:59.355Z,17.98
2022-12-05T13:23:07.727Z,16.00
2022-12-05T13:24:13.670Z,14.20
2022-12-05T13:25:16.926Z,14.82
2022-12-05T13:26:19.109Z,15.60
2022-12-05T13:27:24.984Z,15.95
2022-12-05T13:28:33.559Z,15.82
2022-12-05T13:29:48.623Z,14.63
2022-12-05T13:31:02.463Z,16.02
2022-12-05T13:32:06.656Z,16.55
2022-12-05T13:33:10.267Z,16.30
2022-12-05T13:34:27.297Z,13.85
2022-12-05T13:35:53.245Z,15.63
2022-12-05T13:37:16.575Z,14.93
2022-12-05T13:38:52.871Z,15.10
2022-12-05T13:40:14.810Z,15.80
2022-12-05T13:41:35.721Z,14.52
2022-12-05T13:42:37.891Z,14.27
2022-12-05T13:43:51.040Z,16.38
2022-12-05T13:45:04.600Z,15.00
2022-12-05T13:46:09.675Z,15.02
2022-12-05T13:47:30.181Z,16.08
2022-12-05T13:48:35.757Z,15.75
2022-12-05T13:49:45.507Z,13.90
2022-12-05T13:50:54.085Z,16.17
2022-12-05T13:52:08.043Z,14.75
2022-12-05T13:53:40.261Z,14.60
2022-12-05T13:54:45.902Z,14.05
2022-12-05T13:56:13.253Z,13.32
2022-12-05T13:57:40.416Z,15.20
2022-12-05T13:58:53.194Z,13.07
2022-12-05T14:00:08.087Z,15.60
2022-12-05T14:01:25.038Z,13.85
2022-12-05T14:02:41.596Z,15.15
2022-12-05T14:03:57.235Z,13.68
2022-12-05T14:04:58.717Z,14.68
2022-12-05T14:06:00.673Z,13.48
2022-12-05T14:07:02.099Z,15.15
2022-12-05T14:08:26.327Z,16.17
2022-12-05T14:09:50.938Z,13.57
2022-12-05T14:10:52.305Z,15.80
2022-12-05T14:12:14.821Z,16.30
2022-12-05T14:13:16.253Z,16.92
2022-12-05T14:14:55.916Z,14.57
2022-12-05T14:16:29.952Z,14.23
2022-12-05T14:17:43.410Z,13.85
2022-12-05T14:18:57.504Z,14.73
2022-12-05T14:20:17.568Z,14.88
2022-12-05T14:21:45.392Z,15.05
2022-12-05T14:23:02.069Z,14.02
2022-12-05T14:24:40.992Z,14.38
2022-12-05T14:26:16.154Z,13.55
2022-12-05T14:27:41.333Z,13.48
2022-12-05T14:28:58.509Z,14.82
2022-12-05T14:30:06.192Z,14.77
2022-12-05T14:31:45.722Z,12.38
2022-12-05T14:32:48.437Z,13.23
2022-12-05T14:34:22.303Z,13.82
2022-12-05T14:35:31.575Z,12.93
2022-12-05T14:36:33.880Z,15.30
2022-12-05T14:37:48.442Z,14.98
2022-12-05T14:38:51.476Z,13.38
2022-12-05T14:39:57.446Z,12.93
2022-12-05T14:41:33.432Z,12.77
2022-12-05T14:42:42.766Z,15.10
2022-12-05T14:43:44.494Z,15.52
2022-12-05T14:44:48.813Z,12.90
2022-12-05T14:45:53.350Z,13.63
2022-12-05T14:46:58.072Z,14.07
2022-12-05T14:48:19.681Z,12.82
2022-12-05T14:49:53.474Z,12.88
2022-12-05T14:50:57.592Z,12.65
2022-12-05T14:51:59.786Z,13.43
2022-12-05T14:53:17.546Z,13.60
2022-12-05T14:54:19.949Z,15.45
2022-12-05T14:55:26.889Z,13.15
2022-12-05T14:56:28.820Z,14.27
2022-12-05T14:57:32.707Z,13.35
2022-12-05T14:58:36.919Z,13.38
2022-12-05T14:59:59.293Z,12.40
2022-12-05T15:01:07.207Z,12.10
2022-12-05T15:02:18.828Z,12.88
2022-12-05T15:03:25.252Z,14.05